sensor_id;sensor_type;location;lat;lon;timestamp;temperature;humidity
20246;DHT22;10281;54.406;18.556;2023-08-12T00:01:31;15.20;99.90
20246;DHT22;10281;54.406;18.556;2023-08-12T00:03:58;15.20;99.90
20246;DHT22;10281;54.406;18.556;2023-08-12T00:06:25;15.20;99.90
20246;DHT22;10281;54.406;18.556;2023-08-12T00:08:52;15.30;99.90
20246;DHT22;10281;54.406;18.556;2023-08-12T00:11:18;15.30;99.90
20246;DHT22;10281;54.406;18.556;2023-08-12T00:13:45;15.30;99.90
20246;DHT22;10281;54.406;18.556;2023-08-12T00:16:11;15.20;99.90
20246;DHT22;10281;54.406;18.556;2023-08-12T00:18:38;15.20;99.90
20246;DHT22;10281;54.406;18.556;2023-08-12T00:21:07;15.20;99.90
20246;DHT22;10281;54.406;18.556;2023-08-12T00:23:39;15.20;99.90
20246;DHT22;10281;54.406;18.556;2023-08-12T00:26:07;15.10;99.90
20246;DHT22;10281;54.406;18.556;2023-08-12T00:28:34;15.10;99.90
20246;DHT22;10281;54.406;18.556;2023-08-12T00:31:01;15.10;99.90
20246;DHT22;10281;54.406;18.556;2023-08-12T00:33:27;15.10;99.90
20246;DHT22;10281;54.406;18.556;2023-08-12T00:35:54;15.00;99.90
20246;DHT22;10281;54.406;18.556;2023-08-12T00:38:21;15.10;99.90
20246;DHT22;10281;54.406;18.556;2023-08-12T00:40:48;15.00;99.90
20246;DHT22;10281;54.406;18.556;2023-08-12T00:43:15;15.00;99.90
20246;DHT22;10281;54.406;18.556;2023-08-12T00:45:42;15.00;99.90
20246;DHT22;10281;54.406;18.556;2023-08-12T00:48:09;15.00;99.90
20246;DHT22;10281;54.406;18.556;2023-08-12T00:50:37;15.00;99.90
20246;DHT22;10281;54.406;18.556;2023-08-12T00:53:05;14.90;99.90
20246;DHT22;10281;54.406;18.556;2023-08-12T00:55:33;14.80;99.90
20246;DHT22;10281;54.406;18.556;2023-08-12T00:58:00;14.80;99.90
20246;DHT22;10281;54.406;18.556;2023-08-12T01:00:28;14.70;99.90
20246;DHT22;10281;54.406;18.556;2023-08-12T01:02:56;14.70;99.90
20246;DHT22;10281;54.406;18.556;2023-08-12T01:05:23;14.70;99.90
20246;DHT22;10281;54.406;18.556;2023-08-12T01:07:50;14.70;99.90
20246;DHT22;10281;54.406;18.556;2023-08-12T01:10:20;14.70;99.90
20246;DHT22;10281;54.406;18.556;2023-08-12T01:12:53;14.60;99.90
20246;DHT22;10281;54.406;18.556;2023-08-12T01:15:21;14.60;99.90
20246;DHT22;10281;54.406;18.556;2023-08-12T01:17:50;14.60;99.90
20246;DHT22;10281;54.406;18.556;2023-08-12T01:20:20;14.60;99.90
20246;DHT22;10281;54.406;18.556;2023-08-12T01:23:10;14.60;99.90
20246;DHT22;10281;54.406;18.556;2023-08-12T01:25:37;14.50;99.90
20246;DHT22;10281;54.406;18.556;2023-08-12T01:28:05;14.50;99.90
20246;DHT22;10281;54.406;18.556;2023-08-12T01:30:34;14.40;99.90
20246;DHT22;10281;54.406;18.556;2023-08-12T01:33:08;14.40;99.90
20246;DHT22;10281;54.406;18.556;2023-08-12T01:35:47;14.40;99.90
20246;DHT22;10281;54.406;18.556;2023-08-12T01:38:18;14.40;99.90
20246;DHT22;10281;54.406;18.556;2023-08-12T01:40:45;14.30;99.90
20246;DHT22;10281;54.406;18.556;2023-08-12T01:43:13;14.30;99.90
20246;DHT22;10281;54.406;18.556;2023-08-12T01:45:41;14.30;99.90
20246;DHT22;10281;54.406;18.556;2023-08-12T01:48:09;14.20;99.90
20246;DHT22;10281;54.406;18.556;2023-08-12T01:50:36;14.20;99.90
20246;DHT22;10281;54.406;18.556;2023-08-12T01:53:03;14.20;99.90
20246;DHT22;10281;54.406;18.556;2023-08-12T01:55:30;14.20;99.90
20246;DHT22;10281;54.406;18.556;2023-08-12T01:57:57;14.10;99.90
20246;DHT22;10281;54.406;18.556;2023-08-12T02:00:23;14.10;99.90
20246;DHT22;10281;54.406;18.556;2023-08-12T02:02:50;14.00;99.90
20246;DHT22;10281;54.406;18.556;2023-08-12T02:05:17;14.00;99.90
20246;DHT22;10281;54.406;18.556;2023-08-12T02:07:43;13.90;99.90
20246;DHT22;10281;54.406;18.556;2023-08-12T02:10:11;13.90;99.90
20246;DHT22;10281;54.406;18.556;2023-08-12T02:12:37;13.80;99.90
20246;DHT22;10281;54.406;18.556;2023-08-12T02:15:05;13.80;99.90
20246;DHT22;10281;54.406;18.556;2023-08-12T02:17:32;13.80;99.90
20246;DHT22;10281;54.406;18.556;2023-08-12T02:19:58;13.80;99.90
20246;DHT22;10281;54.406;18.556;2023-08-12T02:22:25;13.80;99.90
20246;DHT22;10281;54.406;18.556;2023-08-12T02:24:52;13.80;99.90
20246;DHT22;10281;54.406;18.556;2023-08-12T02:27:18;13.80;99.90
20246;DHT22;10281;54.406;18.556;2023-08-12T02:29:45;13.80;99.90
20246;DHT22;10281;54.406;18.556;2023-08-12T02:32:11;13.80;99.90
20246;DHT22;10281;54.406;18.556;2023-08-12T02:34:38;13.80;99.90
20246;DHT22;10281;54.406;18.556;2023-08-12T02:37:05;13.80;99.90
20246;DHT22;10281;54.406;18.556;2023-08-12T02:39:32;13.80;99.90
20246;DHT22;10281;54.406;18.556;2023-08-12T02:41:58;13.80;99.90
20246;DHT22;10281;54.406;18.556;2023-08-12T02:44:25;13.80;99.90
20246;DHT22;10281;54.406;18.556;2023-08-12T02:46:51;13.80;99.90
20246;DHT22;10281;54.406;18.556;2023-08-12T02:49:18;13.70;99.90
20246;DHT22;10281;54.406;18.556;2023-08-12T02:51:45;13.70;99.90
20246;DHT22;10281;54.406;18.556;2023-08-12T02:54:11;13.70;99.90
20246;DHT22;10281;54.406;18.556;2023-08-12T02:56:39;13.70;99.90
20246;DHT22;10281;54.406;18.556;2023-08-12T02:59:06;13.70;99.90
20246;DHT22;10281;54.406;18.556;2023-08-12T03:01:32;13.70;99.90
20246;DHT22;10281;54.406;18.556;2023-08-12T03:03:59;13.70;99.90
20246;DHT22;10281;54.406;18.556;2023-08-12T03:06:25;13.60;99.90
20246;DHT22;10281;54.406;18.556;2023-08-12T03:08:52;13.60;99.90
20246;DHT22;10281;54.406;18.556;2023-08-12T03:11:19;13.60;99.90
20246;DHT22;10281;54.406;18.556;2023-08-12T03:13:45;13.60;99.90
20246;DHT22;10281;54.406;18.556;2023-08-12T03:16:12;13.50;99.90
20246;DHT22;10281;54.406;18.556;2023-08-12T03:18:40;13.50;99.90
20246;DHT22;10281;54.406;18.556;2023-08-12T03:21:08;13.50;99.90
20246;DHT22;10281;54.406;18.556;2023-08-12T03:23:36;13.50;99.90
20246;DHT22;10281;54.406;18.556;2023-08-12T03:26:03;13.50;99.90
20246;DHT22;10281;54.406;18.556;2023-08-12T03:28:30;13.50;99.90
20246;DHT22;10281;54.406;18.556;2023-08-12T03:30:57;13.50;99.90
20246;DHT22;10281;54.406;18.556;2023-08-12T03:33:24;13.50;99.90
20246;DHT22;10281;54.406;18.556;2023-08-12T03:35:50;13.50;99.90
20246;DHT22;10281;54.406;18.556;2023-08-12T03:38:17;13.50;99.90
20246;DHT22;10281;54.406;18.556;2023-08-12T03:40:44;13.50;99.90
20246;DHT22;10281;54.406;18.556;2023-08-12T03:43:11;13.50;99.90
20246;DHT22;10281;54.406;18.556;2023-08-12T03:45:40;13.50;99.90
20246;DHT22;10281;54.406;18.556;2023-08-12T03:48:07;13.50;99.90
20246;DHT22;10281;54.406;18.556;2023-08-12T03:50:36;13.50;99.90
20246;DHT22;10281;54.406;18.556;2023-08-12T03:53:03;13.50;99.90
20246;DHT22;10281;54.406;18.556;2023-08-12T03:55:31;13.60;99.90
20246;DHT22;10281;54.406;18.556;2023-08-12T03:57:58;13.60;99.90
20246;DHT22;10281;54.406;18.556;2023-08-12T04:00:25;13.60;99.90
20246;DHT22;10281;54.406;18.556;2023-08-12T04:02:52;13.60;99.90
20246;DHT22;10281;54.406;18.556;2023-08-12T04:05:19;13.60;99.90
20246;DHT22;10281;54.406;18.556;2023-08-12T04:07:45;13.60;99.90
20246;DHT22;10281;54.406;18.556;2023-08-12T04:10:12;13.60;99.90
20246;DHT22;10281;54.406;18.556;2023-08-12T04:12:40;13.50;99.90
20246;DHT22;10281;54.406;18.556;2023-08-12T04:15:08;13.50;99.90
20246;DHT22;10281;54.406;18.556;2023-08-12T04:17:35;13.60;99.90
20246;DHT22;10281;54.406;18.556;2023-08-12T04:20:02;13.60;99.90
20246;DHT22;10281;54.406;18.556;2023-08-12T04:22:31;13.60;99.90
20246;DHT22;10281;54.406;18.556;2023-08-12T04:24:57;13.60;99.90
20246;DHT22;10281;54.406;18.556;2023-08-12T04:27:24;13.60;99.90
20246;DHT22;10281;54.406;18.556;2023-08-12T04:29:51;13.70;99.90
20246;DHT22;10281;54.406;18.556;2023-08-12T04:32:17;13.70;99.90
20246;DHT22;10281;54.406;18.556;2023-08-12T04:34:45;13.70;99.90
20246;DHT22;10281;54.406;18.556;2023-08-12T04:37:12;13.80;99.90
20246;DHT22;10281;54.406;18.556;2023-08-12T04:39:39;13.90;99.90
20246;DHT22;10281;54.406;18.556;2023-08-12T04:42:06;14.00;99.90
20246;DHT22;10281;54.406;18.556;2023-08-12T04:44:32;14.00;99.90
20246;DHT22;10281;54.406;18.556;2023-08-12T04:46:59;14.20;99.90
20246;DHT22;10281;54.406;18.556;2023-08-12T04:49:26;14.30;99.90
20246;DHT22;10281;54.406;18.556;2023-08-12T04:51:53;14.40;99.90
20246;DHT22;10281;54.406;18.556;2023-08-12T04:54:19;14.50;99.90
20246;DHT22;10281;54.406;18.556;2023-08-12T04:56:46;14.50;99.90
20246;DHT22;10281;54.406;18.556;2023-08-12T04:59:13;14.70;99.90
20246;DHT22;10281;54.406;18.556;2023-08-12T05:01:39;14.70;99.90
20246;DHT22;10281;54.406;18.556;2023-08-12T05:04:06;14.80;99.90
20246;DHT22;10281;54.406;18.556;2023-08-12T05:06:32;14.90;99.90
20246;DHT22;10281;54.406;18.556;2023-08-12T05:08:59;15.00;99.90
20246;DHT22;10281;54.406;18.556;2023-08-12T05:11:25;15.10;99.90
20246;DHT22;10281;54.406;18.556;2023-08-12T05:13:52;15.10;99.90
20246;DHT22;10281;54.406;18.556;2023-08-12T05:16:19;15.20;99.90
20246;DHT22;10281;54.406;18.556;2023-08-12T05:18:45;15.30;99.90
20246;DHT22;10281;54.406;18.556;2023-08-12T05:21:12;15.30;99.90
20246;DHT22;10281;54.406;18.556;2023-08-12T05:23:39;15.40;99.90
20246;DHT22;10281;54.406;18.556;2023-08-12T05:26:05;15.50;99.90
20246;DHT22;10281;54.406;18.556;2023-08-12T05:28:32;15.60;99.90
20246;DHT22;10281;54.406;18.556;2023-08-12T05:30:58;15.70;99.90
20246;DHT22;10281;54.406;18.556;2023-08-12T05:33:25;15.80;99.90
20246;DHT22;10281;54.406;18.556;2023-08-12T05:35:51;15.90;99.90
20246;DHT22;10281;54.406;18.556;2023-08-12T05:38:18;16.00;99.90
20246;DHT22;10281;54.406;18.556;2023-08-12T05:40:45;16.10;99.90
20246;DHT22;10281;54.406;18.556;2023-08-12T05:43:12;16.20;99.90
20246;DHT22;10281;54.406;18.556;2023-08-12T05:45:38;16.20;99.90
20246;DHT22;10281;54.406;18.556;2023-08-12T05:48:05;16.30;99.90
20246;DHT22;10281;54.406;18.556;2023-08-12T05:50:32;16.30;99.90
20246;DHT22;10281;54.406;18.556;2023-08-12T05:52:58;16.40;99.90
20246;DHT22;10281;54.406;18.556;2023-08-12T05:55:25;16.40;99.90
20246;DHT22;10281;54.406;18.556;2023-08-12T05:57:52;16.40;99.90
20246;DHT22;10281;54.406;18.556;2023-08-12T06:00:18;16.40;99.90
20246;DHT22;10281;54.406;18.556;2023-08-12T06:02:45;16.50;99.90
20246;DHT22;10281;54.406;18.556;2023-08-12T06:05:11;16.50;99.90
20246;DHT22;10281;54.406;18.556;2023-08-12T06:07:38;16.60;99.90
20246;DHT22;10281;54.406;18.556;2023-08-12T06:10:06;16.70;99.90
20246;DHT22;10281;54.406;18.556;2023-08-12T06:12:32;16.70;99.90
20246;DHT22;10281;54.406;18.556;2023-08-12T06:14:59;16.80;99.90
20246;DHT22;10281;54.406;18.556;2023-08-12T06:17:27;16.90;99.90
20246;DHT22;10281;54.406;18.556;2023-08-12T06:19:53;17.00;99.90
20246;DHT22;10281;54.406;18.556;2023-08-12T06:22:20;17.10;99.90
20246;DHT22;10281;54.406;18.556;2023-08-12T06:24:46;17.20;99.90
20246;DHT22;10281;54.406;18.556;2023-08-12T06:27:13;17.30;99.90
20246;DHT22;10281;54.406;18.556;2023-08-12T06:29:40;17.40;99.90
20246;DHT22;10281;54.406;18.556;2023-08-12T06:32:06;17.50;99.90
20246;DHT22;10281;54.406;18.556;2023-08-12T06:34:33;17.60;99.90
20246;DHT22;10281;54.406;18.556;2023-08-12T06:36:59;17.70;99.90
20246;DHT22;10281;54.406;18.556;2023-08-12T06:39:26;17.80;99.90
20246;DHT22;10281;54.406;18.556;2023-08-12T06:41:53;17.90;99.90
20246;DHT22;10281;54.406;18.556;2023-08-12T06:44:21;18.00;99.90
20246;DHT22;10281;54.406;18.556;2023-08-12T06:46:48;18.10;99.90
20246;DHT22;10281;54.406;18.556;2023-08-12T06:49:15;18.20;99.90
20246;DHT22;10281;54.406;18.556;2023-08-12T06:51:42;18.30;99.90
20246;DHT22;10281;54.406;18.556;2023-08-12T06:54:09;18.40;99.90
20246;DHT22;10281;54.406;18.556;2023-08-12T06:56:35;18.50;99.90
20246;DHT22;10281;54.406;18.556;2023-08-12T06:59:02;18.70;99.90
20246;DHT22;10281;54.406;18.556;2023-08-12T07:01:29;18.80;99.90
20246;DHT22;10281;54.406;18.556;2023-08-12T07:03:56;19.00;99.90
20246;DHT22;10281;54.406;18.556;2023-08-12T07:06:22;19.10;99.90
20246;DHT22;10281;54.406;18.556;2023-08-12T07:08:49;19.20;99.90
20246;DHT22;10281;54.406;18.556;2023-08-12T07:11:15;19.40;99.90
20246;DHT22;10281;54.406;18.556;2023-08-12T07:13:42;19.50;99.90
20246;DHT22;10281;54.406;18.556;2023-08-12T07:16:11;19.60;99.90
20246;DHT22;10281;54.406;18.556;2023-08-12T07:18:37;19.60;99.90
20246;DHT22;10281;54.406;18.556;2023-08-12T07:21:04;19.70;99.90
20246;DHT22;10281;54.406;18.556;2023-08-12T07:23:31;19.80;99.90
20246;DHT22;10281;54.406;18.556;2023-08-12T07:25:57;19.90;99.90
20246;DHT22;10281;54.406;18.556;2023-08-12T07:28:24;20.00;99.90
20246;DHT22;10281;54.406;18.556;2023-08-12T07:30:51;20.10;99.90
20246;DHT22;10281;54.406;18.556;2023-08-12T07:33:19;20.30;99.90
20246;DHT22;10281;54.406;18.556;2023-08-12T07:35:47;20.50;99.90
20246;DHT22;10281;54.406;18.556;2023-08-12T07:38:14;20.50;99.90
20246;DHT22;10281;54.406;18.556;2023-08-12T07:40:40;20.60;99.90
20246;DHT22;10281;54.406;18.556;2023-08-12T07:43:07;20.70;99.90
20246;DHT22;10281;54.406;18.556;2023-08-12T07:45:33;20.70;99.90
20246;DHT22;10281;54.406;18.556;2023-08-12T07:48:00;20.80;99.90
20246;DHT22;10281;54.406;18.556;2023-08-12T07:50:27;20.90;99.90
20246;DHT22;10281;54.406;18.556;2023-08-12T07:52:54;20.90;99.90
20246;DHT22;10281;54.406;18.556;2023-08-12T07:55:21;21.00;99.90
20246;DHT22;10281;54.406;18.556;2023-08-12T07:57:47;21.00;99.90
20246;DHT22;10281;54.406;18.556;2023-08-12T08:00:14;21.10;99.90
20246;DHT22;10281;54.406;18.556;2023-08-12T08:02:41;21.20;99.90
20246;DHT22;10281;54.406;18.556;2023-08-12T08:05:07;21.20;99.90
20246;DHT22;10281;54.406;18.556;2023-08-12T08:07:34;21.30;99.90
20246;DHT22;10281;54.406;18.556;2023-08-12T08:10:01;21.30;99.90
20246;DHT22;10281;54.406;18.556;2023-08-12T08:12:27;21.30;99.90
20246;DHT22;10281;54.406;18.556;2023-08-12T08:14:54;21.30;99.90
20246;DHT22;10281;54.406;18.556;2023-08-12T08:17:21;21.30;99.90
20246;DHT22;10281;54.406;18.556;2023-08-12T08:19:47;21.30;99.90
20246;DHT22;10281;54.406;18.556;2023-08-12T08:22:14;21.30;99.90
20246;DHT22;10281;54.406;18.556;2023-08-12T08:24:40;21.40;99.90
20246;DHT22;10281;54.406;18.556;2023-08-12T08:27:07;21.40;99.90
20246;DHT22;10281;54.406;18.556;2023-08-12T08:29:34;21.40;99.90
20246;DHT22;10281;54.406;18.556;2023-08-12T08:32:00;21.40;99.90
20246;DHT22;10281;54.406;18.556;2023-08-12T08:34:27;21.50;99.90
20246;DHT22;10281;54.406;18.556;2023-08-12T08:36:53;21.50;99.90
20246;DHT22;10281;54.406;18.556;2023-08-12T08:39:20;21.60;99.90
20246;DHT22;10281;54.406;18.556;2023-08-12T08:41:48;21.60;99.90
20246;DHT22;10281;54.406;18.556;2023-08-12T08:44:15;21.60;99.90
20246;DHT22;10281;54.406;18.556;2023-08-12T08:46:44;21.70;99.90
20246;DHT22;10281;54.406;18.556;2023-08-12T08:49:12;21.70;99.90
20246;DHT22;10281;54.406;18.556;2023-08-12T08:51:41;21.80;99.90
20246;DHT22;10281;54.406;18.556;2023-08-12T08:54:09;21.90;99.90
20246;DHT22;10281;54.406;18.556;2023-08-12T08:56:37;22.00;99.90
20246;DHT22;10281;54.406;18.556;2023-08-12T08:59:04;22.00;99.90
20246;DHT22;10281;54.406;18.556;2023-08-12T09:01:31;22.00;99.90
20246;DHT22;10281;54.406;18.556;2023-08-12T09:03:59;22.00;99.90
20246;DHT22;10281;54.406;18.556;2023-08-12T09:06:26;22.00;99.90
20246;DHT22;10281;54.406;18.556;2023-08-12T09:08:54;22.10;99.90
20246;DHT22;10281;54.406;18.556;2023-08-12T09:11:21;22.10;99.90
20246;DHT22;10281;54.406;18.556;2023-08-12T09:13:49;22.10;99.90
20246;DHT22;10281;54.406;18.556;2023-08-12T09:16:16;22.10;99.90
20246;DHT22;10281;54.406;18.556;2023-08-12T09:18:43;22.20;99.90
20246;DHT22;10281;54.406;18.556;2023-08-12T09:21:11;22.20;99.90
20246;DHT22;10281;54.406;18.556;2023-08-12T09:23:38;22.30;99.90
20246;DHT22;10281;54.406;18.556;2023-08-12T09:26:13;22.30;99.90
20246;DHT22;10281;54.406;18.556;2023-08-12T09:28:42;22.30;99.90
20246;DHT22;10281;54.406;18.556;2023-08-12T09:33:43;22.30;99.90
20246;DHT22;10281;54.406;18.556;2023-08-12T09:36:10;22.30;99.90
20246;DHT22;10281;54.406;18.556;2023-08-12T09:38:36;22.30;99.90
20246;DHT22;10281;54.406;18.556;2023-08-12T09:41:03;22.30;99.90
20246;DHT22;10281;54.406;18.556;2023-08-12T09:43:31;22.40;99.90
20246;DHT22;10281;54.406;18.556;2023-08-12T09:45:58;22.50;99.90
20246;DHT22;10281;54.406;18.556;2023-08-12T09:48:25;22.50;99.90
20246;DHT22;10281;54.406;18.556;2023-08-12T09:50:53;22.50;99.90
20246;DHT22;10281;54.406;18.556;2023-08-12T09:53:22;22.50;99.90
20246;DHT22;10281;54.406;18.556;2023-08-12T09:55:51;22.60;99.90
20246;DHT22;10281;54.406;18.556;2023-08-12T09:58:19;22.60;99.90
20246;DHT22;10281;54.406;18.556;2023-08-12T10:00:48;22.60;99.90
20246;DHT22;10281;54.406;18.556;2023-08-12T10:03:17;22.60;99.90
20246;DHT22;10281;54.406;18.556;2023-08-12T10:05:44;22.60;99.90
20246;DHT22;10281;54.406;18.556;2023-08-12T10:08:12;22.70;99.90
20246;DHT22;10281;54.406;18.556;2023-08-12T10:10:41;22.70;99.90
20246;DHT22;10281;54.406;18.556;2023-08-12T10:13:10;22.70;99.90
20246;DHT22;10281;54.406;18.556;2023-08-12T10:15:37;22.80;99.90
20246;DHT22;10281;54.406;18.556;2023-08-12T10:18:05;22.80;99.90
20246;DHT22;10281;54.406;18.556;2023-08-12T10:20:33;22.80;99.90
20246;DHT22;10281;54.406;18.556;2023-08-12T10:23:02;22.80;99.90
20246;DHT22;10281;54.406;18.556;2023-08-12T10:25:31;22.80;99.90
20246;DHT22;10281;54.406;18.556;2023-08-12T10:28:00;22.90;99.90
20246;DHT22;10281;54.406;18.556;2023-08-12T10:30:29;22.90;99.90
20246;DHT22;10281;54.406;18.556;2023-08-12T10:32:58;22.90;99.90
20246;DHT22;10281;54.406;18.556;2023-08-12T10:35:40;22.90;99.90
20246;DHT22;10281;54.406;18.556;2023-08-12T10:38:07;23.00;99.90
20246;DHT22;10281;54.406;18.556;2023-08-12T10:40:33;23.00;99.90
20246;DHT22;10281;54.406;18.556;2023-08-12T10:43:00;23.00;99.90
20246;DHT22;10281;54.406;18.556;2023-08-12T10:48:24;23.10;99.90
20246;DHT22;10281;54.406;18.556;2023-08-12T10:50:54;23.10;99.90
20246;DHT22;10281;54.406;18.556;2023-08-12T10:53:25;23.20;99.90
20246;DHT22;10281;54.406;18.556;2023-08-12T10:55:57;23.30;99.90
20246;DHT22;10281;54.406;18.556;2023-08-12T10:58:27;23.20;99.90
20246;DHT22;10281;54.406;18.556;2023-08-12T11:00:56;23.20;99.90
20246;DHT22;10281;54.406;18.556;2023-08-12T11:03:24;23.20;99.90
20246;DHT22;10281;54.406;18.556;2023-08-12T11:05:51;23.20;99.90
20246;DHT22;10281;54.406;18.556;2023-08-12T11:08:25;23.20;99.90
20246;DHT22;10281;54.406;18.556;2023-08-12T11:10:55;23.30;99.90
20246;DHT22;10281;54.406;18.556;2023-08-12T11:13:23;23.30;99.90
20246;DHT22;10281;54.406;18.556;2023-08-12T11:15:51;23.30;99.90
20246;DHT22;10281;54.406;18.556;2023-08-12T11:18:19;23.30;99.90
20246;DHT22;10281;54.406;18.556;2023-08-12T11:20:48;23.30;99.90
20246;DHT22;10281;54.406;18.556;2023-08-12T11:23:16;23.40;99.90
20246;DHT22;10281;54.406;18.556;2023-08-12T11:25:43;23.50;99.90
20246;DHT22;10281;54.406;18.556;2023-08-12T11:28:11;23.50;99.90
20246;DHT22;10281;54.406;18.556;2023-08-12T11:30:40;23.50;99.90
20246;DHT22;10281;54.406;18.556;2023-08-12T11:33:08;23.50;99.90
20246;DHT22;10281;54.406;18.556;2023-08-12T11:35:37;23.50;99.90
20246;DHT22;10281;54.406;18.556;2023-08-12T11:38:05;23.60;99.90
20246;DHT22;10281;54.406;18.556;2023-08-12T11:40:32;23.60;99.90
20246;DHT22;10281;54.406;18.556;2023-08-12T11:42:59;23.60;99.90
20246;DHT22;10281;54.406;18.556;2023-08-12T11:45:26;23.60;99.90
20246;DHT22;10281;54.406;18.556;2023-08-12T11:47:54;23.60;99.90
20246;DHT22;10281;54.406;18.556;2023-08-12T11:50:25;23.60;99.90
20246;DHT22;10281;54.406;18.556;2023-08-12T11:52:53;23.70;99.90
20246;DHT22;10281;54.406;18.556;2023-08-12T11:55:21;23.70;99.90
20246;DHT22;10281;54.406;18.556;2023-08-12T11:57:49;23.70;99.90
20246;DHT22;10281;54.406;18.556;2023-08-12T12:00:16;23.80;99.90
20246;DHT22;10281;54.406;18.556;2023-08-12T12:02:48;23.70;99.90
20246;DHT22;10281;54.406;18.556;2023-08-12T12:05:17;23.80;99.90
20246;DHT22;10281;54.406;18.556;2023-08-12T12:07:44;23.70;99.90
20246;DHT22;10281;54.406;18.556;2023-08-12T12:10:14;23.80;99.90
20246;DHT22;10281;54.406;18.556;2023-08-12T12:12:44;23.80;99.90
20246;DHT22;10281;54.406;18.556;2023-08-12T12:15:13;23.90;99.90
20246;DHT22;10281;54.406;18.556;2023-08-12T12:17:41;23.90;99.90
20246;DHT22;10281;54.406;18.556;2023-08-12T12:20:09;24.00;99.90
20246;DHT22;10281;54.406;18.556;2023-08-12T12:22:36;24.10;99.90
20246;DHT22;10281;54.406;18.556;2023-08-12T12:25:08;24.20;99.90
20246;DHT22;10281;54.406;18.556;2023-08-12T12:27:37;24.30;99.90
20246;DHT22;10281;54.406;18.556;2023-08-12T12:30:08;24.20;99.90
20246;DHT22;10281;54.406;18.556;2023-08-12T12:32:36;24.30;99.90
20246;DHT22;10281;54.406;18.556;2023-08-12T12:35:03;24.30;99.90
20246;DHT22;10281;54.406;18.556;2023-08-12T12:37:32;24.30;99.90
20246;DHT22;10281;54.406;18.556;2023-08-12T12:39:59;24.30;99.90
20246;DHT22;10281;54.406;18.556;2023-08-12T12:42:26;24.30;99.90
20246;DHT22;10281;54.406;18.556;2023-08-12T12:44:52;24.30;99.90
20246;DHT22;10281;54.406;18.556;2023-08-12T12:47:19;24.40;99.90
20246;DHT22;10281;54.406;18.556;2023-08-12T12:49:47;24.40;99.90
20246;DHT22;10281;54.406;18.556;2023-08-12T12:52:13;24.40;99.90
20246;DHT22;10281;54.406;18.556;2023-08-12T12:54:40;24.30;99.90
20246;DHT22;10281;54.406;18.556;2023-08-12T12:57:06;24.40;99.90
20246;DHT22;10281;54.406;18.556;2023-08-12T12:59:33;24.40;99.90
20246;DHT22;10281;54.406;18.556;2023-08-12T13:02:00;24.40;99.90
20246;DHT22;10281;54.406;18.556;2023-08-12T13:04:27;24.40;99.90
20246;DHT22;10281;54.406;18.556;2023-08-12T13:06:53;24.40;99.90
20246;DHT22;10281;54.406;18.556;2023-08-12T13:09:20;24.40;99.90
20246;DHT22;10281;54.406;18.556;2023-08-12T13:11:46;24.40;99.90
20246;DHT22;10281;54.406;18.556;2023-08-12T13:14:13;24.40;99.90
20246;DHT22;10281;54.406;18.556;2023-08-12T13:16:40;24.30;99.90
20246;DHT22;10281;54.406;18.556;2023-08-12T13:19:06;24.20;99.90
20246;DHT22;10281;54.406;18.556;2023-08-12T13:21:33;24.20;99.90
20246;DHT22;10281;54.406;18.556;2023-08-12T13:24:00;24.20;99.90
20246;DHT22;10281;54.406;18.556;2023-08-12T13:26:29;24.10;99.90
20246;DHT22;10281;54.406;18.556;2023-08-12T13:28:55;24.10;99.90
20246;DHT22;10281;54.406;18.556;2023-08-12T13:31:22;24.10;99.90
20246;DHT22;10281;54.406;18.556;2023-08-12T13:33:50;24.10;99.90
20246;DHT22;10281;54.406;18.556;2023-08-12T13:36:16;24.10;99.90
20246;DHT22;10281;54.406;18.556;2023-08-12T13:38:43;24.20;99.90
20246;DHT22;10281;54.406;18.556;2023-08-12T13:41:10;24.20;99.90
20246;DHT22;10281;54.406;18.556;2023-08-12T13:43:36;24.00;99.90
20246;DHT22;10281;54.406;18.556;2023-08-12T13:46:03;24.00;99.90
20246;DHT22;10281;54.406;18.556;2023-08-12T13:48:29;24.00;99.90
20246;DHT22;10281;54.406;18.556;2023-08-12T13:50:56;23.90;99.90
20246;DHT22;10281;54.406;18.556;2023-08-12T13:53:23;23.90;99.90
20246;DHT22;10281;54.406;18.556;2023-08-12T13:55:50;23.90;99.90
20246;DHT22;10281;54.406;18.556;2023-08-12T13:58:16;24.00;99.90
20246;DHT22;10281;54.406;18.556;2023-08-12T14:00:43;24.00;99.90
20246;DHT22;10281;54.406;18.556;2023-08-12T14:03:10;24.10;99.90
20246;DHT22;10281;54.406;18.556;2023-08-12T14:05:36;24.00;99.90
20246;DHT22;10281;54.406;18.556;2023-08-12T14:08:03;24.00;99.90
20246;DHT22;10281;54.406;18.556;2023-08-12T14:10:30;24.10;99.90
20246;DHT22;10281;54.406;18.556;2023-08-12T14:12:56;24.00;99.90
20246;DHT22;10281;54.406;18.556;2023-08-12T14:15:23;24.00;99.90
20246;DHT22;10281;54.406;18.556;2023-08-12T14:17:50;24.00;99.90
20246;DHT22;10281;54.406;18.556;2023-08-12T14:20:16;23.90;99.90
20246;DHT22;10281;54.406;18.556;2023-08-12T14:22:44;23.80;99.90
20246;DHT22;10281;54.406;18.556;2023-08-12T14:25:10;23.80;99.90
20246;DHT22;10281;54.406;18.556;2023-08-12T14:27:37;23.80;99.90
20246;DHT22;10281;54.406;18.556;2023-08-12T14:30:04;23.80;99.90
20246;DHT22;10281;54.406;18.556;2023-08-12T14:32:31;23.80;99.90
20246;DHT22;10281;54.406;18.556;2023-08-12T14:34:58;23.80;99.90
20246;DHT22;10281;54.406;18.556;2023-08-12T14:37:24;23.80;99.90
20246;DHT22;10281;54.406;18.556;2023-08-12T14:39:51;23.70;99.90
20246;DHT22;10281;54.406;18.556;2023-08-12T14:42:17;23.70;99.90
20246;DHT22;10281;54.406;18.556;2023-08-12T14:44:44;23.80;99.90
20246;DHT22;10281;54.406;18.556;2023-08-12T14:47:10;23.80;99.90
20246;DHT22;10281;54.406;18.556;2023-08-12T14:49:37;23.70;99.90
20246;DHT22;10281;54.406;18.556;2023-08-12T14:52:04;23.70;99.90
20246;DHT22;10281;54.406;18.556;2023-08-12T14:54:30;23.70;99.90
20246;DHT22;10281;54.406;18.556;2023-08-12T14:56:57;23.70;99.90
20246;DHT22;10281;54.406;18.556;2023-08-12T14:59:23;23.70;99.90
20246;DHT22;10281;54.406;18.556;2023-08-12T15:01:50;23.60;99.90
20246;DHT22;10281;54.406;18.556;2023-08-12T15:04:17;23.60;99.90
20246;DHT22;10281;54.406;18.556;2023-08-12T15:06:43;23.60;99.90
20246;DHT22;10281;54.406;18.556;2023-08-12T15:09:10;23.60;99.90
20246;DHT22;10281;54.406;18.556;2023-08-12T15:11:37;23.60;99.90
20246;DHT22;10281;54.406;18.556;2023-08-12T15:14:03;23.60;99.90
20246;DHT22;10281;54.406;18.556;2023-08-12T15:16:30;23.60;99.90
20246;DHT22;10281;54.406;18.556;2023-08-12T15:18:57;23.50;99.90
20246;DHT22;10281;54.406;18.556;2023-08-12T15:21:24;23.50;99.90